Time;durP1;ratioP1;P1;durP2;ratioP2;P2;SDS_P1;SDS_P2;PMS_P1;PMS_P2;Temp;Humidity;BMP_temperature;BMP_pressure;BME280_temperature;BME280_humidity;BME280_pressure;Samples;Min_cycle;Max_cycle;Signal;HPM_P1;HPM_P2
2024/01/14 00:01:00;;;;;;;91.47;55.42;;;;;;;3.64;79.78;101318.94;4906707;28;20105;-79
2024/01/14 00:03:27;;;;;;;90.07;55.70;;;;;;;3.67;79.31;101327.59;4921757;28;20058;-80
2024/01/14 00:05:54;;;;;;;94.20;55.58;;;;;;;3.54;79.88;101312.41;4915607;28;20054;-80
2024/01/14 00:08:24;;;;;;;86.97;52.70;;;;;;;3.47;79.85;101300.53;4908788;28;20415;-80
2024/01/14 00:10:51;;;;;;;88.05;52.03;;;;;;;3.63;80.13;101338.22;4914528;28;20399;-80
2024/01/14 00:13:19;;;;;;;91.93;53.70;;;;;;;3.50;80.02;101324.00;4934975;28;20050;-81
2024/01/14 00:15:46;;;;;;;87.47;51.53;;;;;;;3.39;80.63;101307.88;4926589;28;20046;-79
2024/01/14 00:18:16;;;;;;;93.30;56.30;;;;;;;3.64;80.38;101312.81;4913023;28;20057;-81
2024/01/14 00:20:43;;;;;;;84.72;53.45;;;;;;;3.80;79.86;101312.91;4943939;28;20074;-80
2024/01/14 00:23:10;;;;;;;84.50;52.47;;;;;;;3.61;79.45;101298.03;4935371;28;20046;-81
2024/01/14 00:25:37;;;;;;;89.47;51.35;;;;;;;3.55;79.93;101306.25;4909566;28;20319;-81
2024/01/14 00:28:04;;;;;;;85.70;52.47;;;;;;;3.50;79.55;101310.03;4937547;28;20054;-82
2024/01/14 00:30:31;;;;;;;84.70;53.13;;;;;;;3.30;80.02;101282.94;4947341;28;20051;-81
2024/01/14 00:32:58;;;;;;;93.53;52.63;;;;;;;3.34;80.02;101281.84;4914268;28;20050;-81
2024/01/14 00:35:30;;;;;;;76.88;48.53;;;;;;;3.52;79.14;101303.78;4914736;28;20062;-82
2024/01/14 00:37:59;;;;;;;84.05;51.90;;;;;;;3.33;79.48;101288.03;4918503;28;20579;-80
2024/01/14 00:40:30;;;;;;;81.68;50.53;;;;;;;3.30;78.80;101277.69;4923336;28;20055;-81
2024/01/14 00:42:57;;;;;;;80.95;49.22;;;;;;;3.30;78.45;101282.94;4939644;28;20054;-81
2024/01/14 00:45:24;;;;;;;86.88;47.72;;;;;;;3.43;78.17;101305.03;4930025;28;20054;-81
2024/01/14 00:47:51;;;;;;;73.10;46.88;;;;;;;3.41;77.89;101300.78;4935816;28;20278;-80
2024/01/14 00:50:18;;;;;;;72.43;44.25;;;;;;;3.22;77.89;101275.41;4943765;28;20050;-82
2024/01/14 00:52:47;;;;;;;68.57;43.35;;;;;;;3.27;77.75;101277.81;4941853;28;20047;-82
2024/01/14 00:55:14;;;;;;;71.30;43.83;;;;;;;3.25;77.25;101298.03;4932706;28;20387;-81
2024/01/14 00:57:41;;;;;;;66.15;43.00;;;;;;;3.10;77.56;101270.75;4938628;28;20539;-82
2024/01/14 01:00:09;;;;;;;69.63;43.75;;;;;;;3.06;77.77;101263.97;4957611;28;20058;-83
2024/01/14 01:02:37;;;;;;;74.00;44.00;;;;;;;3.03;77.84;101256.22;4929557;28;20349;-79
2024/01/14 01:05:05;;;;;;;73.55;45.38;;;;;;;3.30;77.93;101292.56;4923234;28;20401;-81
2024/01/14 01:07:31;;;;;;;67.97;42.95;;;;;;;3.05;77.28;101257.00;4921129;28;20137;-81
2024/01/14 01:09:58;;;;;;;70.82;41.58;;;;;;;3.16;77.28;101286.22;4936486;28;20133;-81
2024/01/14 01:12:25;;;;;;;70.00;42.00;;;;;;;3.13;78.11;101277.63;4925145;28;20397;-80
2024/01/14 01:14:56;;;;;;;70.22;41.40;;;;;;;3.06;77.77;101253.47;4919691;28;20530;-82
2024/01/14 01:17:26;;;;;;;64.50;40.22;;;;;;;3.40;76.91;101262.38;4917806;28;20143;-82
2024/01/14 01:19:57;;;;;;;66.22;41.40;;;;;;;3.23;76.40;101247.44;4907643;29;20334;-81
2024/01/14 01:22:24;;;;;;;60.28;38.58;;;;;;;3.03;76.68;101216.88;4922288;28;20057;-80
2024/01/14 01:24:51;;;;;;;61.47;39.33;;;;;;;3.42;77.06;101276.25;4936251;28;20521;-80
2024/01/14 01:27:19;;;;;;;58.53;39.00;;;;;;;3.34;76.56;101267.88;4930344;28;20078;-80
2024/01/14 01:29:46;;;;;;;60.95;38.00;;;;;;;3.27;76.97;101266.47;4931082;28;20051;-80
2024/01/14 01:32:15;;;;;;;61.28;39.47;;;;;;;3.14;77.58;101255.72;4936512;28;20063;-81
2024/01/14 01:34:43;;;;;;;65.13;39.15;;;;;;;3.01;78.03;101244.97;4938745;28;20061;-80
2024/01/14 01:37:10;;;;;;;63.55;39.50;;;;;;;2.83;77.59;101216.97;4941316;28;20231;-81
2024/01/14 01:39:37;;;;;;;62.88;38.88;;;;;;;2.94;78.30;101246.19;4933145;28;20525;-82
2024/01/14 01:42:04;;;;;;;63.35;37.78;;;;;;;2.01;78.58;101105.38;4943683;28;20043;-81
2024/01/14 01:44:31;;;;;;;64.25;38.95;;;;;;;2.83;78.87;101245.81;4934765;28;20050;-79
2024/01/14 01:46:59;;;;;;;61.90;39.65;;;;;;;2.86;78.57;101250.91;4907631;28;20085;-82
2024/01/14 01:49:29;;;;;;;58.92;37.22;;;;;;;2.77;79.39;101247.81;4924227;28;20055;-81
2024/01/14 01:52:00;;;;;;;59.72;39.60;;;;;;;2.88;79.00;101249.06;4936335;28;20051;-79
2024/01/14 01:54:29;;;;;;;58.22;38.97;;;;;;;2.68;78.17;101216.75;4934630;28;20138;-80
2024/01/14 01:56:57;;;;;;;60.75;38.83;;;;;;;2.88;77.95;101249.06;4917560;28;20290;-80
2024/01/14 01:59:24;;;;;;;63.63;40.08;;;;;;;2.77;77.67;101229.44;4938308;28;20062;-80
2024/01/14 02:01:51;;;;;;;65.85;37.95;;;;;;;2.75;78.35;101241.78;4935068;28;20113;-78
2024/01/14 02:04:21;;;;;;;66.10;40.50;;;;;;;2.52;78.02;101210.50;4955747;28;20047;-80
2024/01/14 02:06:48;;;;;;;60.83;37.83;;;;;;;2.59;78.41;101211.94;4946457;28;20055;-80
2024/01/14 02:09:15;;;;;;;60.15;39.90;;;;;;;2.74;77.84;101236.59;4949454;28;20054;-81
2024/01/14 02:11:42;;;;;;;62.40;38.92;;;;;;;2.47;77.40;101194.16;4947570;28;20050;-80
2024/01/14 02:14:10;;;;;;;56.65;38.80;;;;;;;2.72;78.05;101235.84;4949760;28;20047;-81
2024/01/14 02:16:40;;;;;;;66.30;40.00;;;;;;;2.68;78.04;101227.25;4953889;28;20460;-80
2024/01/14 02:19:08;;;;;;;62.75;40.15;;;;;;;2.61;78.13;101220.59;4951754;28;20059;-82
2024/01/14 02:21:56;;;;;;;68.88;40.25;;;;;;;2.59;78.51;101227.66;4939089;28;20469;-80
2024/01/14 02:24:29;;;;;;;59.35;39.17;;;;;;;2.57;78.04;101216.41;4941637;28;20054;-79
2024/01/14 02:26:57;;;;;;;64.20;39.60;;;;;;;2.50;77.88;101197.50;4944427;28;20046;-80
2024/01/14 02:29:27;;;;;;;61.40;37.85;;;;;;;2.17;78.28;101126.50;4949662;28;20133;-79
2024/01/14 02:31:56;;;;;;;;;;;;;;;2.45;77.82;101181.13;4952665;28;20062;-81
2024/01/14 02:34:23;;;;;;;61.63;37.85;;;;;;;2.47;78.40;101175.81;4941566;28;20028;-80
2024/01/14 02:36:50;;;;;;;61.47;39.65;;;;;;;2.59;78.16;101190.13;4947166;28;20281;-81
2024/01/14 02:39:17;;;;;;;56.22;36.88;;;;;;;2.38;78.34;101163.13;4947706;28;20057;-82
2024/01/14 02:41:47;;;;;;;57.75;34.63;;;;;;;2.52;78.04;101189.53;4941460;28;20058;-81
2024/01/14 02:44:15;;;;;;;62.65;37.22;;;;;;;2.47;78.49;101178.44;4947718;28;20058;-83
2024/01/14 02:46:42;;;;;;;63.55;39.30;;;;;;;2.11;78.44;101134.63;4949786;28;20541;-80
2024/01/14 02:49:08;;;;;;;66.22;37.78;;;;;;;2.44;78.57;101191.69;4942618;28;20338;-80
2024/01/14 02:51:37;;;;;;;57.92;36.95;;;;;;;2.38;79.06;101178.84;4948712;28;20129;-82
2024/01/14 02:54:09;;;;;;;56.75;36.10;;;;;;;2.58;78.32;101186.66;4937638;28;20168;-83
2024/01/14 02:56:39;;;;;;;58.58;37.80;;;;;;;2.59;78.37;101172.63;4947587;28;20057;-83
2024/01/14 02:59:05;;;;;;;58.38;37.58;;;;;;;2.52;78.54;101179.06;4945294;28;20051;-83
2024/01/14 03:01:42;;;;;;;63.03;38.42;;;;;;;2.21;78.75;101121.97;4937013;28;20130;-82
2024/01/14 03:04:08;;;;;;;61.70;37.17;;;;;;;2.72;78.57;101180.78;4958036;28;20136;-82
2024/01/14 03:06:35;;;;;;;60.30;38.05;;;;;;;2.84;77.92;101168.84;4937435;28;20446;-81
2024/01/14 03:09:07;;;;;;;56.28;38.50;;;;;;;2.78;78.00;101165.59;4935740;28;20427;-82
2024/01/14 03:11:39;;;;;;;61.63;37.85;;;;;;;2.74;78.21;101176.28;4912822;28;20184;-82
2024/01/14 03:14:12;;;;;;;58.35;37.03;;;;;;;2.14;77.62;101069.03;4899499;28;20058;-83
2024/01/14 03:16:54;;;;;;;57.83;35.95;;;;;;;2.53;78.03;101154.56;4902786;28;20360;-83
2024/01/14 03:19:42;;;;;;;60.88;37.30;;;;;;;2.50;78.85;101154.69;4917461;28;20058;-83
2024/01/14 03:22:18;;;;;;;54.05;35.25;;;;;;;2.57;78.97;101156.09;4899386;28;20398;-81
2024/01/14 03:24:53;;;;;;;61.28;37.10;;;;;;;2.34;78.80;101128.34;4904785;28;20065;-83
2024/01/14 03:27:36;;;;;;;54.33;35.28;;;;;;;2.38;79.91;101135.16;4912645;28;20053;-83
2024/01/14 03:30:23;;;;;;;60.45;36.95;;;;;;;2.51;79.53;101145.91;4906292;28;20050;-82
2024/01/14 03:32:52;;;;;;;58.55;37.15;;;;;;;2.19;79.00;101102.88;4944302;28;20490;-81
2024/01/14 03:35:27;;;;;;;54.72;37.38;;;;;;;2.72;79.30;101150.16;4946239;28;20414;-82
2024/01/14 03:37:54;;;;;;;55.55;36.88;;;;;;;2.73;79.18;101151.84;4937690;28;20096;-81
2024/01/14 03:40:24;;;;;;;60.20;38.45;;;;;;;1.57;78.72;100972.13;4950416;28;20125;-83
2024/01/14 03:42:55;;;;;;;63.72;39.53;;;;;;;2.40;78.69;101099.22;4956069;28;20046;-84
2024/01/14 03:45:23;;;;;;;61.13;37.95;;;;;;;2.49;79.58;101116.31;4964001;28;20057;-82
2024/01/14 03:47:50;;;;;;;60.65;38.00;;;;;;;2.46;79.25;101124.31;4961354;28;20082;-82
2024/01/14 03:50:17;;;;;;;60.53;37.75;;;;;;;2.28;79.26;101107.66;4945937;28;20042;-82
2024/01/14 03:52:44;;;;;;;67.35;38.00;;;;;;;2.46;79.07;101145.28;4942451;28;20054;-85
2024/01/14 03:55:11;;;;;;;59.70;36.10;;;;;;;2.36;79.50;101131.75;4949262;28;20148;-80
2024/01/14 03:57:38;;;;;;;63.28;37.63;;;;;;;2.30;79.60;101117.16;4937519;28;20046;-83
2024/01/14 04:00:07;;;;;;;55.47;36.53;;;;;;;2.39;79.55;101141.25;4948648;28;20133;-82
2024/01/14 04:02:38;;;;;;;63.83;37.53;;;;;;;1.89;79.96;101056.19;4937664;28;20054;-83
2024/01/14 04:05:05;;;;;;;49.95;34.55;;;;;;;2.29;79.84;101106.75;4956234;28;20424;-81
2024/01/14 04:07:34;;;;;;;56.65;35.60;;;;;;;2.32;79.94;101120.56;4970258;28;20512;-82
2024/01/14 04:10:01;;;;;;;57.95;35.58;;;;;;;2.33;79.33;101119.66;4954793;28;20485;-82
2024/01/14 04:12:28;;;;;;;61.28;36.13;;;;;;;2.30;79.58;101111.91;4958453;28;20043;-82
2024/01/14 04:14:55;;;;;;;56.53;35.83;;;;;;;2.50;79.21;101141.59;4939240;28;20051;-81
2024/01/14 04:17:22;;;;;;;58.97;36.15;;;;;;;2.51;78.85;101135.44;4940506;28;20109;-83
2024/01/14 04:19:49;;;;;;;53.67;35.90;;;;;;;2.66;78.38;101139.09;4936517;28;20137;-82
2024/01/14 04:22:18;;;;;;;55.88;35.85;;;;;;;2.42;76.99;101094.78;4971106;28;20043;-82
2024/01/14 04:24:45;;;;;;;54.50;34.97;;;;;;;2.53;76.95;101128.34;4959366;28;20105;-81
2024/01/14 04:27:12;;;;;;;53.58;34.65;;;;;;;2.28;76.85;101095.44;4962008;28;20846;-83
2024/01/14 04:29:39;;;;;;;56.92;34.17;;;;;;;2.20;77.13;101083.59;4951363;28;20074;-81
2024/01/14 04:32:08;;;;;;;60.97;36.13;;;;;;;2.27;77.32;101106.81;4940889;28;20506;-82
2024/01/14 04:34:36;;;;;;;50.67;32.90;;;;;;;2.17;77.50;101102.94;4944879;28;20058;-82
2024/01/14 04:37:05;;;;;;;46.88;31.25;;;;;;;2.34;77.36;101118.72;4961902;28;20046;-84
2024/01/14 04:39:35;;;;;;;48.28;31.60;;;;;;;2.11;76.85;101090.09;4971790;28;20643;-81
2024/01/14 04:42:02;;;;;;;46.60;30.42;;;;;;;2.27;76.50;101122.53;4948255;28;20638;-79
2024/01/14 04:44:29;;;;;;;53.00;31.98;;;;;;;2.04;75.73;101114.88;4965601;28;20458;-82
2024/01/14 04:46:56;;;;;;;55.63;35.67;;;;;;;1.83;75.52;101096.59;4949384;28;20043;-82
2024/01/14 04:49:28;;;;;;;47.50;31.83;;;;;;;1.79;75.54;101108.13;4954952;28;20081;-81
2024/01/14 04:52:03;;;;;;;56.40;36.78;;;;;;;1.91;75.44;101106.72;4949742;28;20044;-81
2024/01/14 04:54:29;;;;;;;60.42;38.28;;;;;;;1.77;75.16;101091.63;4952428;28;20426;-82
2024/01/14 04:56:57;;;;;;;60.70;40.55;;;;;;;1.68;75.11;101107.75;4948163;28;20517;-81
2024/01/14 04:59:24;;;;;;;66.40;44.65;;;;;;;1.44;74.80;101084.34;4966180;28;20050;-82
2024/01/14 05:01:51;;;;;;;71.63;44.92;;;;;;;1.56;73.97;101101.28;4941544;28;20470;-80
2024/01/14 05:04:23;;;;;;;70.10;46.67;;;;;;;1.46;74.39;101111.31;4945503;28;20061;-82
2024/01/14 05:06:51;;;;;;;72.75;46.00;;;;;;;1.21;74.94;101066.16;4946440;28;20089;-83
2024/01/14 05:09:18;;;;;;;77.13;49.72;;;;;;;1.26;74.74;101087.75;4944829;28;20135;-83
2024/01/14 05:11:48;;;;;;;74.35;51.33;;;;;;;0.66;74.17;101011.81;4933548;28;20383;-82
2024/01/14 05:14:15;;;;;;;72.10;48.13;;;;;;;1.15;74.38;101103.91;4928804;28;20385;-82
2024/01/14 05:16:42;;;;;;;72.90;49.03;;;;;;;1.12;75.22;101104.03;4944565;28;20498;-82
2024/01/14 05:19:09;;;;;;;74.17;49.57;;;;;;;0.88;74.69;101058.84;4937065;28;20499;-83
2024/01/14 05:21:38;;;;;;;80.43;52.17;;;;;;;1.10;74.66;101105.00;4944844;28;20046;-82
2024/01/14 05:24:05;;;;;;;77.30;51.17;;;;;;;1.06;75.20;101088.59;4941228;28;20497;-83
2024/01/14 05:26:41;;;;;;;79.47;52.10;;;;;;;1.15;74.92;101103.91;4944210;28;20057;-81
2024/01/14 05:29:08;;;;;;;79.57;52.17;;;;;;;0.99;75.45;101085.38;4948871;28;20113;-81
2024/01/14 05:31:37;;;;;;;74.83;51.57;;;;;;;0.99;75.16;101105.44;4945050;28;20054;-79
2024/01/14 05:34:04;;;;;;;78.83;52.03;;;;;;;0.89;76.31;101102.34;4939947;28;20335;-79
2024/01/14 05:36:31;;;;;;;79.87;53.30;;;;;;;1.05;75.63;101111.28;4944368;28;20046;-79
2024/01/14 05:38:59;;;;;;;80.37;52.50;;;;;;;0.93;75.70;101088.25;4942648;28;20109;-80
2024/01/14 05:41:26;;;;;;;73.67;51.00;;;;;;;0.72;75.13;101050.75;4942799;28;20047;-80
2024/01/14 05:43:56;;;;;;;75.13;51.28;;;;;;;1.11;74.73;101104.94;4978070;28;20086;-79
2024/01/14 05:46:22;;;;;;;70.20;48.50;;;;;;;1.12;74.85;101092.69;4940781;28;20047;-80
2024/01/14 05:48:49;;;;;;;74.45;49.10;;;;;;;1.11;74.58;101104.94;4941811;28;20487;-80
2024/01/14 05:51:16;;;;;;;76.60;52.33;;;;;;;0.96;74.82;101082.88;4942538;28;20043;-81
2024/01/14 05:53:43;;;;;;;78.93;50.37;;;;;;;0.69;74.26;101036.97;4943810;28;20129;-81
2024/01/14 05:56:10;;;;;;;75.53;50.03;;;;;;;1.00;74.47;101102.78;4944721;28;20102;-80
2024/01/14 05:58:38;;;;;;;77.30;51.03;;;;;;;0.80;74.85;101093.13;4949840;28;20057;-79
2024/01/14 06:01:06;;;;;;;72.93;49.87;;;;;;;0.87;75.54;101104.16;4930514;28;20051;-79
2024/01/14 06:03:33;;;;;;;74.27;49.53;;;;;;;0.84;75.76;101117.38;4924151;29;20519;-80
2024/01/14 06:05:59;;;;;;;74.77;48.97;;;;;;;0.89;75.98;101122.41;4916113;29;20248;-80
2024/01/14 06:08:27;;;;;;;73.30;50.87;;;;;;;0.32;75.81;101022.78;4900876;29;20295;-81
2024/01/14 06:10:53;;;;;;;71.53;49.37;;;;;;;0.77;75.69;101097.63;4932367;28;20575;-81
2024/01/14 06:13:20;;;;;;;73.40;48.88;;;;;;;0.99;76.02;101108.91;4915899;28;20047;-82
2024/01/14 06:15:48;;;;;;;69.30;47.90;;;;;;;0.95;75.72;101109.94;4929580;28;20405;-81
2024/01/14 06:18:14;;;;;;;75.70;50.43;;;;;;;0.90;75.61;101109.28;4913425;28;20577;-81
2024/01/14 06:20:46;;;;;;;73.70;49.93;;;;;;;0.53;75.17;101027.13;4915727;28;20055;-81
2024/01/14 06:23:17;;;;;;;73.30;48.10;;;;;;;1.13;74.66;101120.56;4920110;28;20101;-80
2024/01/14 06:25:44;;;;;;;74.17;50.37;;;;;;;0.97;74.58;101108.13;4948096;28;20141;-81
2024/01/14 06:28:11;;;;;;;70.27;50.50;;;;;;;1.12;73.96;101127.56;4940993;28;20043;-82
2024/01/14 06:30:40;;;;;;;73.57;51.28;;;;;;;0.97;73.24;101108.13;4909374;28;20043;-82
2024/01/14 06:33:10;;;;;;;73.00;51.47;;;;;;;0.77;72.36;101108.06;4916701;28;20083;-82
2024/01/14 06:35:37;;;;;;;68.70;50.17;;;;;;;0.85;72.54;101116.47;4926342;28;20428;-80
2024/01/14 06:38:03;;;;;;;76.50;51.33;;;;;;;0.63;72.64;101133.00;4945935;28;20295;-81
2024/01/14 06:40:30;;;;;;;67.80;48.87;;;;;;;0.52;73.07;101129.09;4939588;28;20585;-81
2024/01/14 06:43:08;;;;;;;68.03;49.13;;;;;;;0.42;73.60;101112.94;4944940;28;20106;-81
2024/01/14 06:45:35;;;;;;;70.50;49.30;;;;;;;0.56;73.59;101139.38;4932948;28;20051;-80
2024/01/14 06:48:02;;;;;;;72.87;50.87;;;;;;;0.25;74.12;101104.91;4950822;28;20086;-82
2024/01/14 06:50:31;;;;;;;69.10;49.13;;;;;;;0.42;74.37;101129.44;4943557;28;20046;-79
2024/01/14 06:52:57;;;;;;;69.40;50.03;;;;;;;0.17;73.87;101111.25;4943567;28;20548;-79
2024/01/14 06:55:24;;;;;;;71.53;49.77;;;;;;;0.31;74.13;101129.00;4943570;28;20070;-80
2024/01/14 06:57:53;;;;;;;74.60;51.47;;;;;;;0.32;75.09;101132.47;4944889;28;20728;-80
2024/01/14 07:00:20;;;;;;;63.83;48.53;;;;;;;0.20;74.80;101121.56;4944149;28;20055;-80
2024/01/14 07:02:46;;;;;;;64.97;49.00;;;;;;;0.19;74.68;101106.81;4950390;28;20067;-80
2024/01/14 07:05:16;;;;;;;69.73;49.73;;;;;;;0.20;74.63;101098.06;4894137;29;20119;-81
2024/01/14 07:07:44;;;;;;;67.07;48.57;;;;;;;0.31;74.37;101102.03;4905828;28;20237;-78
2024/01/14 07:10:15;;;;;;;72.83;48.60;;;;;;;0.55;74.10;101115.91;4923208;28;20094;-81
2024/01/14 07:12:45;;;;;;;68.60;48.83;;;;;;;0.74;73.78;101123.88;4942667;28;20522;-82
2024/01/14 07:15:13;;;;;;;69.27;48.60;;;;;;;0.61;73.58;101098.25;4925435;28;20059;-82
2024/01/14 07:17:45;;;;;;;68.53;47.57;;;;;;;0.76;73.57;101119.44;4912248;28;20344;-82
2024/01/14 07:20:25;;;;;;;72.73;50.10;;;;;;;0.50;73.70;101079.50;4934861;28;20046;-81
2024/01/14 07:22:52;;;;;;;69.23;47.57;;;;;;;0.89;73.71;101127.66;4941373;28;20333;-82
2024/01/14 07:25:19;;;;;;;67.73;48.40;;;;;;;0.57;73.65;101074.91;4930616;28;20063;-80
2024/01/14 07:27:46;;;;;;;66.80;48.27;;;;;;;0.91;73.88;101125.81;4925299;28;20504;-82
2024/01/14 07:30:13;;;;;;;71.00;48.17;;;;;;;0.92;73.74;101133.59;4919939;29;20060;-82
2024/01/14 07:32:42;;;;;;;67.90;48.73;;;;;;;0.97;73.08;101123.81;4921498;28;20126;-81
2024/01/14 07:35:09;;;;;;;66.50;49.00;;;;;;;0.60;73.19;101086.06;4925636;28;20047;-82
2024/01/14 07:37:35;;;;;;;68.67;49.30;;;;;;;0.55;73.01;101087.16;4899804;28;20055;-82
2024/01/14 07:40:06;;;;;;;66.37;47.60;;;;;;;0.66;73.38;101112.91;4906969;29;20048;-83
2024/01/14 07:42:33;;;;;;;69.33;49.67;;;;;;;0.50;74.42;101089.97;4907572;28;20343;-82
2024/01/14 07:45:01;;;;;;;70.10;48.93;;;;;;;0.69;74.70;101099.69;4942056;28;20055;-83
2024/01/14 07:47:29;;;;;;;68.77;49.90;;;;;;;0.84;74.49;101115.59;4928769;29;20518;-83
2024/01/14 07:49:56;;;;;;;70.43;46.60;;;;;;;0.48;73.86;101038.69;4930824;28;20082;-82
2024/01/14 07:52:24;;;;;;;65.77;46.87;;;;;;;0.84;73.54;101089.47;4932817;29;20472;-82
2024/01/14 07:54:51;;;;;;;64.73;47.60;;;;;;;0.88;72.40;101087.59;4936715;28;20051;-83
2024/01/14 07:57:18;;;;;;;60.53;45.50;;;;;;;1.10;72.16;101115.47;4927473;29;20106;-81
2024/01/14 07:59:44;;;;;;;61.57;45.80;;;;;;;0.99;71.71;101111.50;4923746;28;20058;-81
2024/01/14 08:02:11;;;;;;;58.17;44.13;;;;;;;0.94;71.73;101121.31;4935174;28;20058;-82
2024/01/14 08:04:38;;;;;;;61.27;45.00;;;;;;;0.91;71.86;101121.44;4944125;28;20097;-81
2024/01/14 08:07:05;;;;;;;58.60;44.83;;;;;;;0.96;71.66;101118.63;4946488;28;20410;-81
2024/01/14 08:09:32;;;;;;;63.63;45.47;;;;;;;0.94;71.12;101099.53;4943351;28;20122;-80
2024/01/14 08:12:04;;;;;;;57.93;44.83;;;;;;;0.80;71.00;101113.16;4928271;28;20137;-82
2024/01/14 08:14:41;;;;;;;57.87;46.10;;;;;;;0.84;71.03;101123.44;4913489;28;20054;-82
2024/01/14 08:17:09;;;;;;;58.75;45.38;;;;;;;0.91;71.36;101136.28;4944167;28;20558;-81
2024/01/14 08:19:41;;;;;;;62.90;46.97;;;;;;;0.79;70.62;101099.25;4924569;28;20092;-82
2024/01/14 08:22:22;;;;;;;63.07;46.67;;;;;;;0.84;71.07;101122.59;4925977;28;20073;-82
2024/01/14 08:24:54;;;;;;;59.60;44.73;;;;;;;1.01;71.33;101148.91;4920603;28;20047;-83
2024/01/14 08:27:21;;;;;;;62.90;45.90;;;;;;;0.71;71.30;101109.19;4920706;28;20121;-82
2024/01/14 08:29:49;;;;;;;58.37;44.83;;;;;;;0.96;71.31;101143.00;4917905;28;20102;-81
2024/01/14 08:32:16;;;;;;;56.27;44.50;;;;;;;0.88;71.15;101116.34;4923203;28;20343;-83
2024/01/14 08:34:44;;;;;;;55.75;43.60;;;;;;;0.79;71.48;101080.13;4924895;28;20479;-82
2024/01/14 08:38:16;;;;;;;57.37;44.00;;;;;;;0.58;71.26;101033.03;4967414;28;20101;-82
2024/01/14 08:40:48;;;;;;;58.83;43.57;;;;;;;1.09;70.58;101118.97;4917006;28;20086;-82
2024/01/14 08:43:18;;;;;;;59.42;44.92;;;;;;;1.04;70.40;101117.44;4904776;28;20201;-82
2024/01/14 08:45:47;;;;;;;61.60;43.50;;;;;;;1.21;70.60;101124.53;4942882;28;20133;-83
2024/01/14 08:48:17;;;;;;;60.00;43.93;;;;;;;1.16;70.77;101109.97;4951173;28;20047;-83
2024/01/14 08:50:44;;;;;;;56.80;42.92;;;;;;;1.26;71.57;101124.34;4946887;28;20559;-82
2024/01/14 08:53:11;;;;;;;60.43;44.77;;;;;;;1.27;71.87;101123.47;4928670;28;20420;-82
2024/01/14 08:55:38;;;;;;;62.00;44.60;;;;;;;1.37;70.08;101109.06;4953579;28;20050;-82
2024/01/14 08:58:05;;;;;;;58.78;43.33;;;;;;;0.98;71.42;101073.22;4955796;28;20093;-81
2024/01/14 09:00:35;;;;;;;61.57;45.73;;;;;;;1.18;72.05;101114.22;4960502;28;20070;-82
2024/01/14 09:03:04;;;;;;;58.08;45.55;;;;;;;1.28;72.07;101114.69;4944974;28;20074;-82
2024/01/14 09:05:34;;;;;;;57.70;42.42;;;;;;;1.42;71.87;101121.97;4942229;28;20146;-82
2024/01/14 09:08:03;;;;;;;57.90;44.40;;;;;;;1.45;72.42;101112.19;4943821;28;20838;-82
2024/01/14 09:10:30;;;;;;;63.27;46.00;;;;;;;1.45;71.81;101080.81;4956268;28;20464;-80
2024/01/14 09:12:57;;;;;;;60.00;45.13;;;;;;;1.32;71.70;101056.09;4939635;28;20117;-78
2024/01/14 09:15:24;;;;;;;61.93;46.30;;;;;;;1.67;71.31;101069.41;4947762;28;20089;-80
2024/01/14 09:17:51;;;;;;;58.85;43.53;;;;;;;1.81;71.73;101067.03;4946827;28;20144;-80
2024/01/14 09:20:19;;;;;;;60.72;44.90;;;;;;;1.95;71.31;101091.75;4952339;28;20097;-81
2024/01/14 09:22:46;;;;;;;63.38;45.05;;;;;;;1.90;71.88;101071.84;4952156;28;20138;-82
2024/01/14 09:25:13;;;;;;;59.55;43.95;;;;;;;1.98;71.79;101057.56;4950379;28;20050;-81
2024/01/14 09:27:40;;;;;;;60.53;45.53;;;;;;;2.25;71.63;101084.25;4951700;28;20051;-80
2024/01/14 09:30:07;;;;;;;65.88;45.92;;;;;;;2.00;71.70;101058.34;4952238;28;20065;-81
2024/01/14 09:32:34;;;;;;;65.23;45.53;;;;;;;2.30;71.92;101087.50;4968124;28;20042;-81
2024/01/14 09:35:01;;;;;;;61.45;47.08;;;;;;;2.18;71.68;101049.59;4967382;28;20240;-81
2024/01/14 09:37:28;;;;;;;63.30;46.28;;;;;;;2.35;72.16;101078.50;4967901;28;20051;-80
2024/01/14 09:39:55;;;;;;;60.83;44.17;;;;;;;2.21;72.89;101049.50;4962705;28;20042;-79
2024/01/14 09:42:49;;;;;;;61.78;45.90;;;;;;;2.51;72.57;101077.78;4938059;28;20354;-82
2024/01/14 09:45:41;;;;;;;64.28;47.17;;;;;;;2.58;72.17;101073.09;4946414;28;20050;-82
2024/01/14 09:48:18;;;;;;;61.78;44.40;;;;;;;2.55;71.98;101074.09;4941120;28;20055;-84
2024/01/14 09:50:50;;;;;;;69.38;47.88;;;;;;;2.64;71.83;101093.75;4952587;28;20065;-82
2024/01/14 09:53:23;;;;;;;64.13;45.50;;;;;;;2.75;71.52;101097.56;4953880;28;20343;-82
2024/01/14 09:55:55;;;;;;;57.38;45.00;;;;;;;2.80;71.53;101070.28;4954044;28;20126;-82
2024/01/14 09:58:23;;;;;;;65.25;47.67;;;;;;;2.95;71.79;101093.13;4950187;28;20051;-82
2024/01/14 10:00:54;;;;;;;62.42;45.95;;;;;;;2.85;71.54;101076.16;4953600;28;20042;-81
2024/01/14 10:03:21;;;;;;;63.50;46.72;;;;;;;2.80;71.16;101071.13;4950462;28;20114;-81
2024/01/14 10:05:53;;;;;;;64.53;46.83;;;;;;;1.97;71.62;100919.72;4948187;28;20196;-81
2024/01/14 10:08:28;;;;;;;58.67;46.65;;;;;;;2.94;71.87;101091.44;4919712;28;20047;-81
2024/01/14 10:11:03;;;;;;;60.47;44.95;;;;;;;2.73;72.07;101044.34;4904990;28;20057;-83
2024/01/14 10:13:33;;;;;;;59.22;44.42;;;;;;;2.79;72.33;101069.41;4946155;28;20121;-82
2024/01/14 10:16:02;;;;;;;59.58;44.72;;;;;;;3.00;72.57;101106.84;4947137;28;20059;-84
2024/01/14 10:18:51;;;;;;;62.83;46.50;;;;;;;3.06;72.41;101090.84;4949251;28;20054;-82
2024/01/14 10:21:18;;;;;;;59.00;45.80;;;;;;;2.99;71.66;101079.78;4949252;28;20438;-82
2024/01/14 10:23:45;;;;;;;62.05;45.92;;;;;;;2.76;71.26;101032.88;4946229;28;20502;-82
2024/01/14 10:26:12;;;;;;;62.58;44.35;;;;;;;2.90;71.33;101066.28;4944434;28;20058;-83
2024/01/14 10:28:39;;;;;;;58.53;45.72;;;;;;;2.97;71.43;101080.78;4945313;28;20406;-82
2024/01/14 10:31:09;;;;;;;57.25;44.50;;;;;;;2.99;72.28;101073.69;4950216;28;20111;-82
2024/01/14 10:33:36;;;;;;;60.05;45.17;;;;;;;3.04;71.91;101082.19;4949358;28;20046;-82
2024/01/14 10:36:08;;;;;;;61.38;44.80;;;;;;;3.14;71.85;101086.03;4952553;28;20046;-83
2024/01/14 10:38:36;;;;;;;57.50;44.50;;;;;;;3.13;71.99;101073.84;4948817;28;20118;-83
2024/01/14 10:41:08;;;;;;;57.78;44.10;;;;;;;2.89;71.60;101015.59;4941206;28;20902;-80
2024/01/14 10:43:36;;;;;;;59.28;44.42;;;;;;;3.28;71.58;101068.75;4944082;28;20137;-83
2024/01/14 10:46:05;;;;;;;57.92;42.97;;;;;;;3.49;71.13;101080.75;4954220;28;20137;-83
2024/01/14 10:48:38;;;;;;;58.47;42.67;;;;;;;3.45;71.03;101049.50;4944394;28;20303;-83
2024/01/14 10:51:09;;;;;;;56.47;44.17;;;;;;;3.56;70.77;101048.00;4946575;28;20172;-82
2024/01/14 10:54:07;;;;;;;61.15;43.22;;;;;;;3.76;70.79;101064.50;4947876;28;20422;-82
2024/01/14 10:56:50;;;;;;;58.97;41.17;;;;;;;3.82;70.17;101048.41;4942081;28;20055;-83
2024/01/14 10:59:21;;;;;;;54.08;40.42;;;;;;;3.89;70.48;101055.03;4952115;28;20141;-81
2024/01/14 11:01:53;;;;;;;54.75;41.05;;;;;;;3.39;70.40;100956.19;4949260;28;20104;-84
2024/01/14 11:04:24;;;;;;;54.42;41.90;;;;;;;3.80;70.81;101003.00;4978010;28;20454;-83
2024/01/14 11:06:55;;;;;;;53.70;37.55;;;;;;;3.91;70.55;101008.53;4975988;28;20428;-83
2024/01/14 11:09:22;;;;;;;48.65;36.67;;;;;;;4.10;69.75;101039.88;4979081;28;20509;-81
2024/01/14 11:11:57;;;;;;;48.83;36.92;;;;;;;4.10;70.52;101016.22;4975804;28;20042;-81
2024/01/14 11:14:57;;;;;;;46.30;37.03;;;;;;;3.78;69.78;100957.59;4972661;28;20042;-80
2024/01/14 11:17:42;;;;;;;54.17;38.58;;;;;;;4.15;70.25;101013.34;4958077;28;20145;-80
2024/01/14 11:20:16;;;;;;;49.63;36.67;;;;;;;4.13;70.24;101009.97;4971414;28;20101;-81
2024/01/14 11:22:43;;;;;;;49.83;37.58;;;;;;;4.13;69.92;100986.34;4968678;28;20058;-81
2024/01/14 11:25:22;;;;;;;61.40;38.15;;;;;;;4.30;70.78;100999.38;4961309;28;20128;-83
2024/01/14 11:27:53;;;;;;;56.65;40.22;;;;;;;4.24;70.62;100970.78;4968622;28;20046;-82